sensor_id;sensor_type;location;lat;lon;timestamp;temperature;humidity
20081;DHT22;10200;49.232;9.222;2024-02-04T00:00:34;8.90;99.90
20081;DHT22;10200;49.232;9.222;2024-02-04T00:03:00;8.80;99.90
20081;DHT22;10200;49.232;9.222;2024-02-04T00:05:25;8.90;99.90
20081;DHT22;10200;49.232;9.222;2024-02-04T00:07:51;8.80;99.90
20081;DHT22;10200;49.232;9.222;2024-02-04T00:10:17;8.80;99.90
20081;DHT22;10200;49.232;9.222;2024-02-04T00:12:43;8.80;99.90
20081;DHT22;10200;49.232;9.222;2024-02-04T00:15:09;8.80;99.90
20081;DHT22;10200;49.232;9.222;2024-02-04T00:17:35;8.90;99.90
20081;DHT22;10200;49.232;9.222;2024-02-04T00:20:02;8.80;99.90
20081;DHT22;10200;49.232;9.222;2024-02-04T00:22:29;8.80;99.90
20081;DHT22;10200;49.232;9.222;2024-02-04T00:24:54;8.80;99.90
20081;DHT22;10200;49.232;9.222;2024-02-04T00:27:21;8.90;99.90
20081;DHT22;10200;49.232;9.222;2024-02-04T00:29:47;8.90;99.90
20081;DHT22;10200;49.232;9.222;2024-02-04T00:32:12;8.90;99.90
20081;DHT22;10200;49.232;9.222;2024-02-04T00:34:38;8.90;99.90
20081;DHT22;10200;49.232;9.222;2024-02-04T00:37:04;8.90;99.90
20081;DHT22;10200;49.232;9.222;2024-02-04T00:39:30;8.90;99.90
20081;DHT22;10200;49.232;9.222;2024-02-04T00:41:56;8.90;99.90
20081;DHT22;10200;49.232;9.222;2024-02-04T00:44:21;8.90;99.90
20081;DHT22;10200;49.232;9.222;2024-02-04T00:46:47;8.90;99.90
20081;DHT22;10200;49.232;9.222;2024-02-04T00:49:12;8.90;99.90
20081;DHT22;10200;49.232;9.222;2024-02-04T00:51:38;8.90;99.90
20081;DHT22;10200;49.232;9.222;2024-02-04T00:54:03;8.90;99.90
20081;DHT22;10200;49.232;9.222;2024-02-04T00:56:30;8.90;99.90
20081;DHT22;10200;49.232;9.222;2024-02-04T00:58:56;8.90;99.90
20081;DHT22;10200;49.232;9.222;2024-02-04T01:01:21;8.90;99.90
20081;DHT22;10200;49.232;9.222;2024-02-04T01:03:47;8.90;99.90
20081;DHT22;10200;49.232;9.222;2024-02-04T01:06:12;8.90;99.90
20081;DHT22;10200;49.232;9.222;2024-02-04T01:08:38;8.90;99.90
20081;DHT22;10200;49.232;9.222;2024-02-04T01:11:07;8.90;99.90
20081;DHT22;10200;49.232;9.222;2024-02-04T01:13:32;8.90;99.90
20081;DHT22;10200;49.232;9.222;2024-02-04T01:15:58;8.90;99.90
20081;DHT22;10200;49.232;9.222;2024-02-04T01:18:23;8.90;99.90
20081;DHT22;10200;49.232;9.222;2024-02-04T01:20:49;8.90;99.90
20081;DHT22;10200;49.232;9.222;2024-02-04T01:23:15;8.90;99.90
20081;DHT22;10200;49.232;9.222;2024-02-04T01:25:43;8.90;99.90
20081;DHT22;10200;49.232;9.222;2024-02-04T01:28:08;8.90;99.90
20081;DHT22;10200;49.232;9.222;2024-02-04T01:30:34;8.90;99.90
20081;DHT22;10200;49.232;9.222;2024-02-04T01:33:00;8.90;99.90
20081;DHT22;10200;49.232;9.222;2024-02-04T01:35:26;8.90;99.90
20081;DHT22;10200;49.232;9.222;2024-02-04T01:37:51;8.90;99.90
20081;DHT22;10200;49.232;9.222;2024-02-04T01:40:17;8.90;99.90
20081;DHT22;10200;49.232;9.222;2024-02-04T01:42:42;8.90;99.90
20081;DHT22;10200;49.232;9.222;2024-02-04T01:45:09;8.90;99.90
20081;DHT22;10200;49.232;9.222;2024-02-04T01:47:34;8.90;99.90
20081;DHT22;10200;49.232;9.222;2024-02-04T01:50:00;8.90;99.90
20081;DHT22;10200;49.232;9.222;2024-02-04T01:52:27;8.90;99.90
20081;DHT22;10200;49.232;9.222;2024-02-04T01:54:53;8.90;99.90
20081;DHT22;10200;49.232;9.222;2024-02-04T01:57:19;8.90;99.90
20081;DHT22;10200;49.232;9.222;2024-02-04T01:59:45;8.90;99.90
20081;DHT22;10200;49.232;9.222;2024-02-04T02:02:12;8.90;99.90
20081;DHT22;10200;49.232;9.222;2024-02-04T02:04:38;8.90;99.90
20081;DHT22;10200;49.232;9.222;2024-02-04T02:07:04;8.90;99.90
20081;DHT22;10200;49.232;9.222;2024-02-04T02:09:33;8.90;99.90
20081;DHT22;10200;49.232;9.222;2024-02-04T02:12:03;8.90;99.90
20081;DHT22;10200;49.232;9.222;2024-02-04T02:14:36;9.00;99.90
20081;DHT22;10200;49.232;9.222;2024-02-04T02:17:07;8.90;99.90
20081;DHT22;10200;49.232;9.222;2024-02-04T02:19:59;8.90;99.90
20081;DHT22;10200;49.232;9.222;2024-02-04T02:22:39;8.90;99.90
20081;DHT22;10200;49.232;9.222;2024-02-04T02:25:10;8.90;99.90
20081;DHT22;10200;49.232;9.222;2024-02-04T02:27:46;8.90;99.90
20081;DHT22;10200;49.232;9.222;2024-02-04T02:30:12;8.90;99.90
20081;DHT22;10200;49.232;9.222;2024-02-04T02:32:37;8.90;99.90
20081;DHT22;10200;49.232;9.222;2024-02-04T02:35:03;8.90;99.90
20081;DHT22;10200;49.232;9.222;2024-02-04T02:37:43;8.90;99.90
20081;DHT22;10200;49.232;9.222;2024-02-04T02:40:34;8.90;99.90
20081;DHT22;10200;49.232;9.222;2024-02-04T02:43:02;8.90;99.90
20081;DHT22;10200;49.232;9.222;2024-02-04T02:45:28;8.90;99.90
20081;DHT22;10200;49.232;9.222;2024-02-04T02:47:54;8.90;99.90
20081;DHT22;10200;49.232;9.222;2024-02-04T02:50:21;8.90;99.90
20081;DHT22;10200;49.232;9.222;2024-02-04T02:52:47;8.90;99.90
20081;DHT22;10200;49.232;9.222;2024-02-04T02:55:13;8.90;99.90
20081;DHT22;10200;49.232;9.222;2024-02-04T02:57:38;8.90;99.90
20081;DHT22;10200;49.232;9.222;2024-02-04T03:00:04;8.90;99.90
20081;DHT22;10200;49.232;9.222;2024-02-04T03:02:32;8.90;99.90
20081;DHT22;10200;49.232;9.222;2024-02-04T03:04:57;8.90;99.90
20081;DHT22;10200;49.232;9.222;2024-02-04T03:07:23;8.90;99.90
20081;DHT22;10200;49.232;9.222;2024-02-04T03:09:48;8.80;99.90
20081;DHT22;10200;49.232;9.222;2024-02-04T03:12:14;8.90;99.90
20081;DHT22;10200;49.232;9.222;2024-02-04T03:14:39;8.80;99.90
20081;DHT22;10200;49.232;9.222;2024-02-04T03:17:05;8.80;99.90
20081;DHT22;10200;49.232;9.222;2024-02-04T03:19:31;8.80;99.90
20081;DHT22;10200;49.232;9.222;2024-02-04T03:21:56;8.80;99.90
20081;DHT22;10200;49.232;9.222;2024-02-04T03:24:22;8.90;99.90
20081;DHT22;10200;49.232;9.222;2024-02-04T03:26:47;8.90;99.90
20081;DHT22;10200;49.232;9.222;2024-02-04T03:29:13;8.90;99.90
20081;DHT22;10200;49.232;9.222;2024-02-04T03:31:39;8.90;99.90
20081;DHT22;10200;49.232;9.222;2024-02-04T03:34:04;8.90;99.90
20081;DHT22;10200;49.232;9.222;2024-02-04T03:36:30;8.90;99.90
20081;DHT22;10200;49.232;9.222;2024-02-04T03:38:56;8.90;99.90
20081;DHT22;10200;49.232;9.222;2024-02-04T03:41:22;8.90;99.90
20081;DHT22;10200;49.232;9.222;2024-02-04T03:43:47;8.90;99.90
20081;DHT22;10200;49.232;9.222;2024-02-04T03:46:17;8.90;99.90
20081;DHT22;10200;49.232;9.222;2024-02-04T03:48:43;8.90;99.90
20081;DHT22;10200;49.232;9.222;2024-02-04T03:51:14;8.90;99.90
20081;DHT22;10200;49.232;9.222;2024-02-04T03:53:40;9.00;99.90
20081;DHT22;10200;49.232;9.222;2024-02-04T03:56:05;8.90;99.90
20081;DHT22;10200;49.232;9.222;2024-02-04T03:58:32;8.90;99.90
20081;DHT22;10200;49.232;9.222;2024-02-04T04:00:58;8.90;99.90
20081;DHT22;10200;49.232;9.222;2024-02-04T04:03:24;8.90;99.90
20081;DHT22;10200;49.232;9.222;2024-02-04T04:05:50;8.90;99.90
20081;DHT22;10200;49.232;9.222;2024-02-04T04:08:16;8.90;99.90
20081;DHT22;10200;49.232;9.222;2024-02-04T04:10:43;8.90;99.90
20081;DHT22;10200;49.232;9.222;2024-02-04T04:13:08;9.00;99.90
20081;DHT22;10200;49.232;9.222;2024-02-04T04:15:34;9.00;99.90
20081;DHT22;10200;49.232;9.222;2024-02-04T04:18:00;9.00;99.90
20081;DHT22;10200;49.232;9.222;2024-02-04T04:20:25;8.90;99.90
20081;DHT22;10200;49.232;9.222;2024-02-04T04:22:51;8.90;99.90
20081;DHT22;10200;49.232;9.222;2024-02-04T04:25:16;8.90;99.90
20081;DHT22;10200;49.232;9.222;2024-02-04T04:27:43;8.90;99.90
20081;DHT22;10200;49.232;9.222;2024-02-04T04:30:09;8.90;99.90
20081;DHT22;10200;49.232;9.222;2024-02-04T04:32:35;8.90;99.90
20081;DHT22;10200;49.232;9.222;2024-02-04T04:35:01;8.90;99.90
20081;DHT22;10200;49.232;9.222;2024-02-04T04:37:26;8.90;99.90
20081;DHT22;10200;49.232;9.222;2024-02-04T04:39:52;8.90;99.90
20081;DHT22;10200;49.232;9.222;2024-02-04T04:42:17;8.90;99.90
20081;DHT22;10200;49.232;9.222;2024-02-04T04:44:43;8.90;99.90
20081;DHT22;10200;49.232;9.222;2024-02-04T04:47:08;9.00;99.90
20081;DHT22;10200;49.232;9.222;2024-02-04T04:49:34;8.90;99.90
20081;DHT22;10200;49.232;9.222;2024-02-04T04:52:00;8.90;99.90
20081;DHT22;10200;49.232;9.222;2024-02-04T04:54:27;9.00;99.90
20081;DHT22;10200;49.232;9.222;2024-02-04T04:56:53;8.90;99.90
20081;DHT22;10200;49.232;9.222;2024-02-04T04:59:18;8.90;99.90
20081;DHT22;10200;49.232;9.222;2024-02-04T05:01:50;8.90;99.90
20081;DHT22;10200;49.232;9.222;2024-02-04T05:04:17;8.90;99.90
20081;DHT22;10200;49.232;9.222;2024-02-04T05:06:44;8.90;99.90
20081;DHT22;10200;49.232;9.222;2024-02-04T05:09:09;8.90;99.90
20081;DHT22;10200;49.232;9.222;2024-02-04T05:11:35;8.90;99.90
20081;DHT22;10200;49.232;9.222;2024-02-04T05:14:01;8.90;99.90
20081;DHT22;10200;49.232;9.222;2024-02-04T05:16:26;8.90;99.90
20081;DHT22;10200;49.232;9.222;2024-02-04T05:18:52;8.80;99.90
20081;DHT22;10200;49.232;9.222;2024-02-04T05:21:18;8.90;99.90
20081;DHT22;10200;49.232;9.222;2024-02-04T05:23:44;8.80;99.90
20081;DHT22;10200;49.232;9.222;2024-02-04T05:26:10;8.80;99.90
20081;DHT22;10200;49.232;9.222;2024-02-04T05:28:36;8.80;99.90
20081;DHT22;10200;49.232;9.222;2024-02-04T05:31:01;8.70;99.90
20081;DHT22;10200;49.232;9.222;2024-02-04T05:33:28;8.70;99.90
20081;DHT22;10200;49.232;9.222;2024-02-04T05:35:53;8.70;99.90
20081;DHT22;10200;49.232;9.222;2024-02-04T05:38:19;8.70;99.90
20081;DHT22;10200;49.232;9.222;2024-02-04T05:40:44;8.70;99.90
20081;DHT22;10200;49.232;9.222;2024-02-04T05:43:10;8.70;99.90
20081;DHT22;10200;49.232;9.222;2024-02-04T05:45:37;8.60;99.90
20081;DHT22;10200;49.232;9.222;2024-02-04T05:48:04;8.60;99.90
20081;DHT22;10200;49.232;9.222;2024-02-04T05:50:30;8.60;99.90
20081;DHT22;10200;49.232;9.222;2024-02-04T05:52:55;8.60;99.90
20081;DHT22;10200;49.232;9.222;2024-02-04T05:55:21;8.60;99.90
20081;DHT22;10200;49.232;9.222;2024-02-04T05:57:47;8.60;99.90
20081;DHT22;10200;49.232;9.222;2024-02-04T06:00:12;8.50;99.90
20081;DHT22;10200;49.232;9.222;2024-02-04T06:02:38;8.50;99.90
20081;DHT22;10200;49.232;9.222;2024-02-04T06:05:04;8.50;99.90
20081;DHT22;10200;49.232;9.222;2024-02-04T06:07:30;8.40;99.90
20081;DHT22;10200;49.232;9.222;2024-02-04T06:09:55;8.50;99.90
20081;DHT22;10200;49.232;9.222;2024-02-04T06:12:25;8.50;99.90
20081;DHT22;10200;49.232;9.222;2024-02-04T06:14:51;8.50;99.90
20081;DHT22;10200;49.232;9.222;2024-02-04T06:17:16;8.50;99.90
20081;DHT22;10200;49.232;9.222;2024-02-04T06:19:42;8.50;99.90
20081;DHT22;10200;49.232;9.222;2024-02-04T06:22:07;8.50;99.90
20081;DHT22;10200;49.232;9.222;2024-02-04T06:24:33;8.50;99.90
20081;DHT22;10200;49.232;9.222;2024-02-04T06:26:59;8.50;99.90
20081;DHT22;10200;49.232;9.222;2024-02-04T06:29:24;8.50;99.90
20081;DHT22;10200;49.232;9.222;2024-02-04T06:31:50;8.60;99.90
20081;DHT22;10200;49.232;9.222;2024-02-04T06:34:15;8.60;99.90
20081;DHT22;10200;49.232;9.222;2024-02-04T06:36:44;8.50;99.90
20081;DHT22;10200;49.232;9.222;2024-02-04T06:39:10;8.60;99.90
20081;DHT22;10200;49.232;9.222;2024-02-04T06:41:36;8.60;99.90
20081;DHT22;10200;49.232;9.222;2024-02-04T06:44:05;8.60;99.90
20081;DHT22;10200;49.232;9.222;2024-02-04T06:46:31;8.60;99.90
20081;DHT22;10200;49.232;9.222;2024-02-04T06:48:57;8.60;99.90
20081;DHT22;10200;49.232;9.222;2024-02-04T06:51:23;8.60;99.90
20081;DHT22;10200;49.232;9.222;2024-02-04T06:53:48;8.60;99.90
20081;DHT22;10200;49.232;9.222;2024-02-04T06:56:14;8.60;99.90
20081;DHT22;10200;49.232;9.222;2024-02-04T06:58:41;8.70;99.90
20081;DHT22;10200;49.232;9.222;2024-02-04T07:01:07;8.60;99.90
20081;DHT22;10200;49.232;9.222;2024-02-04T07:03:32;8.60;99.90
20081;DHT22;10200;49.232;9.222;2024-02-04T07:05:59;8.70;99.90
20081;DHT22;10200;49.232;9.222;2024-02-04T07:08:25;8.70;99.90
20081;DHT22;10200;49.232;9.222;2024-02-04T07:10:51;8.70;99.90
20081;DHT22;10200;49.232;9.222;2024-02-04T07:13:16;8.70;99.90
20081;DHT22;10200;49.232;9.222;2024-02-04T07:15:42;8.70;99.90
20081;DHT22;10200;49.232;9.222;2024-02-04T07:18:07;8.70;99.90
20081;DHT22;10200;49.232;9.222;2024-02-04T07:20:33;8.70;99.90
20081;DHT22;10200;49.232;9.222;2024-02-04T07:22:59;8.70;99.90
20081;DHT22;10200;49.232;9.222;2024-02-04T07:25:24;8.70;99.90
20081;DHT22;10200;49.232;9.222;2024-02-04T07:27:50;8.70;99.90
20081;DHT22;10200;49.232;9.222;2024-02-04T07:30:16;8.70;99.90
20081;DHT22;10200;49.232;9.222;2024-02-04T07:32:42;8.70;99.90
20081;DHT22;10200;49.232;9.222;2024-02-04T07:35:09;8.80;99.90
20081;DHT22;10200;49.232;9.222;2024-02-04T07:37:35;8.80;99.90
20081;DHT22;10200;49.232;9.222;2024-02-04T07:40:01;8.80;99.90
20081;DHT22;10200;49.232;9.222;2024-02-04T07:42:27;8.80;99.90
20081;DHT22;10200;49.232;9.222;2024-02-04T07:44:53;8.80;99.90
20081;DHT22;10200;49.232;9.222;2024-02-04T07:47:19;8.90;99.90
20081;DHT22;10200;49.232;9.222;2024-02-04T07:49:48;8.90;99.90
20081;DHT22;10200;49.232;9.222;2024-02-04T07:52:13;8.90;99.90
20081;DHT22;10200;49.232;9.222;2024-02-04T07:54:39;8.90;99.90
20081;DHT22;10200;49.232;9.222;2024-02-04T07:57:05;8.90;99.90
20081;DHT22;10200;49.232;9.222;2024-02-04T07:59:30;8.90;99.90
20081;DHT22;10200;49.232;9.222;2024-02-04T08:01:56;8.90;99.90
20081;DHT22;10200;49.232;9.222;2024-02-04T08:04:22;9.00;99.90
20081;DHT22;10200;49.232;9.222;2024-02-04T08:06:47;9.00;99.90
20081;DHT22;10200;49.232;9.222;2024-02-04T08:09:13;8.90;99.90
20081;DHT22;10200;49.232;9.222;2024-02-04T08:11:38;9.00;99.90
20081;DHT22;10200;49.232;9.222;2024-02-04T08:14:04;9.00;99.90
20081;DHT22;10200;49.232;9.222;2024-02-04T08:16:30;9.00;99.90
20081;DHT22;10200;49.232;9.222;2024-02-04T08:18:56;9.00;99.90
20081;DHT22;10200;49.232;9.222;2024-02-04T08:21:21;9.00;99.90
20081;DHT22;10200;49.232;9.222;2024-02-04T08:23:47;9.10;99.90
20081;DHT22;10200;49.232;9.222;2024-02-04T08:26:13;9.00;99.90
20081;DHT22;10200;49.232;9.222;2024-02-04T08:28:38;9.10;99.90
20081;DHT22;10200;49.232;9.222;2024-02-04T08:31:04;9.10;99.90
20081;DHT22;10200;49.232;9.222;2024-02-04T08:33:30;9.10;99.90
20081;DHT22;10200;49.232;9.222;2024-02-04T08:35:55;9.10;99.90
20081;DHT22;10200;49.232;9.222;2024-02-04T08:38:21;9.10;99.90
20081;DHT22;10200;49.232;9.222;2024-02-04T08:40:47;9.10;99.90
20081;DHT22;10200;49.232;9.222;2024-02-04T08:43:12;9.10;99.90
20081;DHT22;10200;49.232;9.222;2024-02-04T08:45:38;9.10;99.90
20081;DHT22;10200;49.232;9.222;2024-02-04T08:48:04;9.10;99.90
20081;DHT22;10200;49.232;9.222;2024-02-04T08:50:29;9.20;99.90
20081;DHT22;10200;49.232;9.222;2024-02-04T08:52:55;9.20;99.90
20081;DHT22;10200;49.232;9.222;2024-02-04T08:55:21;9.20;99.90
20081;DHT22;10200;49.232;9.222;2024-02-04T08:57:46;9.20;99.90
20081;DHT22;10200;49.232;9.222;2024-02-04T09:00:14;9.20;99.90
20081;DHT22;10200;49.232;9.222;2024-02-04T09:02:40;9.20;99.90
20081;DHT22;10200;49.232;9.222;2024-02-04T09:05:06;9.20;99.90
20081;DHT22;10200;49.232;9.222;2024-02-04T09:07:31;9.20;99.90
20081;DHT22;10200;49.232;9.222;2024-02-04T09:09:57;9.30;99.90
20081;DHT22;10200;49.232;9.222;2024-02-04T09:12:23;9.20;99.90
20081;DHT22;10200;49.232;9.222;2024-02-04T09:14:48;9.30;99.90
20081;DHT22;10200;49.232;9.222;2024-02-04T09:17:14;9.30;99.90
20081;DHT22;10200;49.232;9.222;2024-02-04T09:19:40;9.30;99.90
20081;DHT22;10200;49.232;9.222;2024-02-04T09:22:05;9.40;99.90
20081;DHT22;10200;49.232;9.222;2024-02-04T09:24:31;9.40;99.90
20081;DHT22;10200;49.232;9.222;2024-02-04T09:26:56;9.40;99.90
20081;DHT22;10200;49.232;9.222;2024-02-04T09:29:22;9.50;99.90
20081;DHT22;10200;49.232;9.222;2024-02-04T09:31:48;9.50;99.90
20081;DHT22;10200;49.232;9.222;2024-02-04T09:34:15;9.50;99.90
20081;DHT22;10200;49.232;9.222;2024-02-04T09:36:40;9.60;99.90
20081;DHT22;10200;49.232;9.222;2024-02-04T09:39:06;9.60;99.90
20081;DHT22;10200;49.232;9.222;2024-02-04T09:41:33;9.60;99.90
20081;DHT22;10200;49.232;9.222;2024-02-04T09:43:59;9.60;99.90
20081;DHT22;10200;49.232;9.222;2024-02-04T09:46:26;9.60;99.90
20081;DHT22;10200;49.232;9.222;2024-02-04T09:48:53;9.60;99.90
20081;DHT22;10200;49.232;9.222;2024-02-04T09:51:20;9.70;99.90
20081;DHT22;10200;49.232;9.222;2024-02-04T09:53:50;9.70;99.90
20081;DHT22;10200;49.232;9.222;2024-02-04T09:56:18;9.60;99.90
20081;DHT22;10200;49.232;9.222;2024-02-04T09:58:44;9.70;99.90
20081;DHT22;10200;49.232;9.222;2024-02-04T10:01:10;9.60;99.90
20081;DHT22;10200;49.232;9.222;2024-02-04T10:03:37;9.60;99.90
20081;DHT22;10200;49.232;9.222;2024-02-04T10:06:03;9.60;99.90
20081;DHT22;10200;49.232;9.222;2024-02-04T10:08:30;9.60;99.90
20081;DHT22;10200;49.232;9.222;2024-02-04T10:10:55;9.60;99.90
20081;DHT22;10200;49.232;9.222;2024-02-04T10:13:21;9.60;99.90
20081;DHT22;10200;49.232;9.222;2024-02-04T10:15:48;9.60;99.90
20081;DHT22;10200;49.232;9.222;2024-02-04T10:18:14;9.60;99.90
20081;DHT22;10200;49.232;9.222;2024-02-04T10:20:39;9.70;99.90
20081;DHT22;10200;49.232;9.222;2024-02-04T10:23:05;9.70;99.90
20081;DHT22;10200;49.232;9.222;2024-02-04T10:25:31;9.70;99.90
20081;DHT22;10200;49.232;9.222;2024-02-04T10:27:57;9.70;99.90
20081;DHT22;10200;49.232;9.222;2024-02-04T10:30:23;9.70;99.90
20081;DHT22;10200;49.232;9.222;2024-02-04T10:32:53;9.70;99.90
20081;DHT22;10200;49.232;9.222;2024-02-04T10:35:25;9.70;99.90
20081;DHT22;10200;49.232;9.222;2024-02-04T10:37:51;9.70;99.90
20081;DHT22;10200;49.232;9.222;2024-02-04T10:40:17;9.80;99.90
20081;DHT22;10200;49.232;9.222;2024-02-04T10:42:43;9.80;99.90
20081;DHT22;10200;49.232;9.222;2024-02-04T10:45:10;9.80;99.90
20081;DHT22;10200;49.232;9.222;2024-02-04T10:47:39;9.80;99.90
20081;DHT22;10200;49.232;9.222;2024-02-04T10:50:06;9.80;99.90
20081;DHT22;10200;49.232;9.222;2024-02-04T10:52:37;9.80;99.90
20081;DHT22;10200;49.232;9.222;2024-02-04T10:55:10;9.80;99.90
20081;DHT22;10200;49.232;9.222;2024-02-04T10:57:40;9.80;99.90
20081;DHT22;10200;49.232;9.222;2024-02-04T11:00:06;9.80;99.90
20081;DHT22;10200;49.232;9.222;2024-02-04T11:02:38;9.80;99.90
20081;DHT22;10200;49.232;9.222;2024-02-04T11:05:05;9.80;99.90
20081;DHT22;10200;49.232;9.222;2024-02-04T11:07:34;9.80;99.90
20081;DHT22;10200;49.232;9.222;2024-02-04T11:10:01;9.90;99.90
20081;DHT22;10200;49.232;9.222;2024-02-04T11:12:28;9.90;99.90
20081;DHT22;10200;49.232;9.222;2024-02-04T11:14:58;9.90;99.90
20081;DHT22;10200;49.232;9.222;2024-02-04T11:25:58;9.90;99.90
20081;DHT22;10200;49.232;9.222;2024-02-04T11:28:25;9.90;99.90
20081;DHT22;10200;49.232;9.222;2024-02-04T11:30:51;9.90;99.90
20081;DHT22;10200;49.232;9.222;2024-02-04T11:33:18;10.00;99.90
20081;DHT22;10200;49.232;9.222;2024-02-04T11:35:45;10.00;99.90
20081;DHT22;10200;49.232;9.222;2024-02-04T11:38:11;10.10;99.90
20081;DHT22;10200;49.232;9.222;2024-02-04T11:40:39;10.00;99.90
20081;DHT22;10200;49.232;9.222;2024-02-04T11:43:11;10.10;99.90
20081;DHT22;10200;49.232;9.222;2024-02-04T11:45:41;10.10;99.90
20081;DHT22;10200;49.232;9.222;2024-02-04T11:48:08;10.20;99.90
20081;DHT22;10200;49.232;9.222;2024-02-04T11:50:35;10.20;99.90
20081;DHT22;10200;49.232;9.222;2024-02-04T11:53:09;10.20;99.90
20081;DHT22;10200;49.232;9.222;2024-02-04T11:55:36;10.20;99.90
20081;DHT22;10200;49.232;9.222;2024-02-04T11:58:03;10.20;99.90
20081;DHT22;10200;49.232;9.222;2024-02-04T12:00:29;10.20;99.90
20081;DHT22;10200;49.232;9.222;2024-02-04T12:03:04;10.20;99.90
20081;DHT22;10200;49.232;9.222;2024-02-04T12:05:35;10.20;99.90
20081;DHT22;10200;49.232;9.222;2024-02-04T12:08:11;10.20;99.90
20081;DHT22;10200;49.232;9.222;2024-02-04T12:10:37;10.10;99.90
20081;DHT22;10200;49.232;9.222;2024-02-04T12:13:05;10.20;99.90
20081;DHT22;10200;49.232;9.222;2024-02-04T12:15:33;10.20;99.90
20081;DHT22;10200;49.232;9.222;2024-02-04T12:18:09;10.20;99.90
20081;DHT22;10200;49.232;9.222;2024-02-04T12:20:36;10.10;99.90
20081;DHT22;10200;49.232;9.222;2024-02-04T12:23:06;10.10;99.90
20081;DHT22;10200;49.232;9.222;2024-02-04T12:25:32;10.10;99.90
20081;DHT22;10200;49.232;9.222;2024-02-04T12:27:59;10.10;99.90
20081;DHT22;10200;49.232;9.222;2024-02-04T12:30:25;9.90;99.90
20081;DHT22;10200;49.232;9.222;2024-02-04T12:33:02;9.90;99.90
20081;DHT22;10200;49.232;9.222;2024-02-04T12:35:29;9.90;99.90
20081;DHT22;10200;49.232;9.222;2024-02-04T12:37:57;9.90;99.90
20081;DHT22;10200;49.232;9.222;2024-02-04T12:40:24;9.90;99.90
20081;DHT22;10200;49.232;9.222;2024-02-04T12:43:11;9.90;99.90
20081;DHT22;10200;49.232;9.222;2024-02-04T12:45:36;10.00;99.90
20081;DHT22;10200;49.232;9.222;2024-02-04T12:48:03;9.90;99.90
20081;DHT22;10200;49.232;9.222;2024-02-04T12:50:28;10.00;99.90
20081;DHT22;10200;49.232;9.222;2024-02-04T12:53:08;9.90;99.90
20081;DHT22;10200;49.232;9.222;2024-02-04T12:55:37;10.00;99.90
20081;DHT22;10200;49.232;9.222;2024-02-04T13:00:32;9.90;99.90
20081;DHT22;10200;49.232;9.222;2024-02-04T13:02:59;9.90;99.90
20081;DHT22;10200;49.232;9.222;2024-02-04T13:05:25;9.90;99.90
20081;DHT22;10200;49.232;9.222;2024-02-04T13:07:55;9.90;99.90
20081;DHT22;10200;49.232;9.222;2024-02-04T13:10:25;9.90;99.90
20081;DHT22;10200;49.232;9.222;2024-02-04T13:12:58;9.80;99.90
20081;DHT22;10200;49.232;9.222;2024-02-04T13:15:29;9.90;99.90
20081;DHT22;10200;49.232;9.222;2024-02-04T13:17:55;9.80;99.90
20081;DHT22;10200;49.232;9.222;2024-02-04T13:20:21;9.90;99.90
20081;DHT22;10200;49.232;9.222;2024-02-04T13:22:47;9.90;99.90
20081;DHT22;10200;49.232;9.222;2024-02-04T13:25:12;9.90;99.90
20081;DHT22;10200;49.232;9.222;2024-02-04T13:27:38;9.90;99.90
20081;DHT22;10200;49.232;9.222;2024-02-04T13:30:05;9.90;99.90
20081;DHT22;10200;49.232;9.222;2024-02-04T13:32:35;9.90;99.90
20081;DHT22;10200;49.232;9.222;2024-02-04T13:35:01;9.90;99.90
20081;DHT22;10200;49.232;9.222;2024-02-04T13:37:26;9.90;99.90
20081;DHT22;10200;49.232;9.222;2024-02-04T13:39:52;9.90;99.90
20081;DHT22;10200;49.232;9.222;2024-02-04T13:42:17;9.90;99.90
20081;DHT22;10200;49.232;9.222;2024-02-04T13:44:43;9.90;99.90
20081;DHT22;10200;49.232;9.222;2024-02-04T13:47:08;9.90;99.90
20081;DHT22;10200;49.232;9.222;2024-02-04T13:49:34;9.90;99.90
20081;DHT22;10200;49.232;9.222;2024-02-04T13:52:00;9.90;99.90
20081;DHT22;10200;49.232;9.222;2024-02-04T13:54:27;9.90;99.90
20081;DHT22;10200;49.232;9.222;2024-02-04T13:56:52;9.90;99.90
20081;DHT22;10200;49.232;9.222;2024-02-04T13:59:18;9.90;99.90
20081;DHT22;10200;49.232;9.222;2024-02-04T14:01:43;9.90;99.90
20081;DHT22;10200;49.232;9.222;2024-02-04T14:04:09;9.80;99.90
20081;DHT22;10200;49.232;9.222;2024-02-04T14:06:35;9.70;99.90
20081;DHT22;10200;49.232;9.222;2024-02-04T14:09:01;9.80;99.90
20081;DHT22;10200;49.232;9.222;2024-02-04T14:11:26;9.90;99.90
20081;DHT22;10200;49.232;9.222;2024-02-04T14:13:52;9.80;99.90
20081;DHT22;10200;49.232;9.222;2024-02-04T14:16:17;9.90;99.90
20081;DHT22;10200;49.232;9.222;2024-02-04T14:18:43;9.80;99.90
20081;DHT22;10200;49.232;9.222;2024-02-04T14:21:11;9.80;99.90
20081;DHT22;10200;49.232;9.222;2024-02-04T14:23:39;9.80;99.90
20081;DHT22;10200;49.232;9.222;2024-02-04T14:26:05;9.90;99.90
20081;DHT22;10200;49.232;9.222;2024-02-04T14:28:33;9.90;99.90
20081;DHT22;10200;49.232;9.222;2024-02-04T14:31:06;9.90;99.90
20081;DHT22;10200;49.232;9.222;2024-02-04T14:33:32;9.90;99.90
20081;DHT22;10200;49.232;9.222;2024-02-04T14:35:58;10.00;99.90
20081;DHT22;10200;49.232;9.222;2024-02-04T14:38:26;10.00;99.90
20081;DHT22;10200;49.232;9.222;2024-02-04T14:40:51;9.90;99.90
20081;DHT22;10200;49.232;9.222;2024-02-04T14:43:17;9.90;99.90
20081;DHT22;10200;49.232;9.222;2024-02-04T14:45:43;10.00;99.90
20081;DHT22;10200;49.232;9.222;2024-02-04T14:48:09;9.90;99.90
20081;DHT22;10200;49.232;9.222;2024-02-04T14:50:35;9.90;99.90
20081;DHT22;10200;49.232;9.222;2024-02-04T14:53:00;9.90;99.90
20081;DHT22;10200;49.232;9.222;2024-02-04T14:55:27;9.90;99.90
20081;DHT22;10200;49.232;9.222;2024-02-04T14:57:52;10.00;99.90
20081;DHT22;10200;49.232;9.222;2024-02-04T15:00:18;9.90;99.90
20081;DHT22;10200;49.232;9.222;2024-02-04T15:02:46;9.90;99.90
20081;DHT22;10200;49.232;9.222;2024-02-04T15:05:12;9.90;99.90
20081;DHT22;10200;49.232;9.222;2024-02-04T15:07:37;9.90;99.90
20081;DHT22;10200;49.232;9.222;2024-02-04T15:10:03;9.80;99.90
20081;DHT22;10200;49.232;9.222;2024-02-04T15:12:29;9.80;99.90
20081;DHT22;10200;49.232;9.222;2024-02-04T15:14:55;9.80;99.90
20081;DHT22;10200;49.232;9.222;2024-02-04T15:17:21;9.80;99.90
20081;DHT22;10200;49.232;9.222;2024-02-04T15:19:47;9.80;99.90
20081;DHT22;10200;49.232;9.222;2024-02-04T15:22:13;9.80;99.90
20081;DHT22;10200;49.232;9.222;2024-02-04T15:24:38;9.80;99.90
20081;DHT22;10200;49.232;9.222;2024-02-04T15:27:06;9.80;99.90
20081;DHT22;10200;49.232;9.222;2024-02-04T15:29:34;9.80;99.90
20081;DHT22;10200;49.232;9.222;2024-02-04T15:32:01;9.80;99.90
20081;DHT22;10200;49.232;9.222;2024-02-04T15:34:27;9.80;99.90
20081;DHT22;10200;49.232;9.222;2024-02-04T15:37:00;9.90;99.90
20081;DHT22;10200;49.232;9.222;2024-02-04T15:39:26;9.90;99.90
20081;DHT22;10200;49.232;9.222;2024-02-04T15:41:51;9.90;99.90
20081;DHT22;10200;49.232;9.222;2024-02-04T15:44:17;9.90;99.90
20081;DHT22;10200;49.232;9.222;2024-02-04T15:46:43;9.90;99.90
20081;DHT22;10200;49.232;9.222;2024-02-04T15:49:11;9.90;99.90
20081;DHT22;10200;49.232;9.222;2024-02-04T15:51:38;9.90;99.90